Terminal Aerodrome Forecast
Issued by NWS

Home | Current Version | Previous Version | Text Only | Print | Product List | Glossary On
Versions: 1 2 3 4 5 6 7 8 9 10 11 12 13 14 15 16
381
FTUS41 KCLE 141733
TAFFDY
TAF
KFDY 141733Z 1418/1518 15012KT P6SM SCT080 OVC250
     FM142100 12010KT P6SM FEW025 OVC080
     FM150100 12008KT 5SM -SN SCT015 OVC025
      TEMPO 1505/1509 1 1/2SM -SN BKN006 OVC012
     FM151300 18012KT P6SM SCT015 OVC025=

USA.gov is the U.S. government's official web portal to all federal, state and local government web resources and services.